METAR Data
IDs: Format: Raw Decoded Include TAF

Data at: 1542 UTC 16 Feb 2019

Region: TOP
KATL 161452Z 28009KT 10SM FEW014 SCT150 BKN250 14/10 A2979 RMK AO2 SLP085 60011 T01390100 51025

KBOS 161454Z 31010KT 10SM FEW050 FEW150 SCT250 04/M07 A2979 RMK AO2 SLP086 T00391072 51015

KBWI 161454Z 33006KT 10SM FEW130 BKN250 04/M07 A2992 RMK AO2 SLP133 T00391072 51017

KCLE 161451Z 36007KT 10SM OVC018 M03/M08 A3010 RMK AO2 SNB30E40 SLP201 P0000 60000 T10331078 52013

KCLT 161510Z 01013KT 9SM OVC008 10/08 A2976 RMK AO2 T01000083

KCVG 161452Z 02009KT 9SM SCT016 M03/M08 A3003 RMK AO2 SLP176 T10281083 51015

KDCA 161452Z 31013KT 10SM SCT090 BKN150 BKN240 04/M08 A2994 RMK AO2 SLP139 T00441083 51019

KDEN 161453Z 00000KT 8SM FEW080 SCT150 BKN220 M03/M06 A2947 RMK AO2 SLP987 VIRGA DSNT NW-N T10331061 56016

KDFW 161453Z 01003KT 2 1/2SM BR OVC005 01/M01 A2994 RMK AO2 SFC VIS 5 DZE43 SLP140 P0000 60000 T00061006 51019

KDTW 161453Z 33005KT 10SM OVC018 M05/M10 A3010 RMK AO2 SLP203 T10501100 51010

KEWR 161451Z 33011G22KT 10SM FEW048 FEW250 04/M08 A2988 RMK AO2 SLP118 T00391083 50013

KFLL 161453Z 00000KT 10SM FEW055 BKN250 23/16 A3000 RMK AO2 SLP157 T02280156 53013

KIAD 161452Z 32013KT 10SM FEW100 BKN230 02/M08 A2994 RMK AO2 SLP139 T00221083 51019

KIAH 161453Z 02008KT 3SM OVC008 14/14 A2981 RMK AO2 SFC VIS 8 SLP095 60000 T01440139 53009

KJFK 161451Z 33018G23KT 10SM FEW050 SCT250 03/M07 A2988 RMK AO2 SLP117 T00331067 50013 $

KLAS 161456Z 00000KT 10SM FEW080 05/M01 A2995 RMK AO2 SLP140 T00501006 53020

KLAX 161453Z 33005KT 10SM FEW019 FEW034 SCT170 09/01 A3015 RMK AO2 SLP209 T00940011 51020

KLGA 161451Z 32016G20KT 10SM FEW040 FEW150 FEW250 02/M08 A2987 RMK AO2 SLP114 T00221078 50013

KMCO 161453Z 22009KT 10SM FEW045 BKN250 21/14 A2994 RMK AO2 SLP136 T02110144 58003

KMDW 161453Z 35007KT 10SM OVC024 M06/M11 A3010 RMK AO2 SLP212 T10561106 50004 $

KMEM 161454Z 02011KT 10SM OVC014 01/M01 A2998 RMK AO2 SLP154 T00111011 50010

KMIA 161453Z 00000KT 10SM FEW050 BKN250 23/15 A3001 RMK AO2 SLP162 T02330150 51013

KMSP 161453Z 00000KT 9SM BKN180 M16/M18 A3017 RMK AO2 SLP237 I3000 T11611183 53001

KORD 161451Z 36006KT 10SM OVC026 M08/M11 A3010 RMK AO2 SLP206 T10831111 51005

KPDX 161453Z 09006KT 9SM -DZ SCT005 BKN019 OVC024 03/03 A2982 RMK AO2 SLP099 P0000 60001 T00330028 53021

KPHL 161454Z 32013KT 10SM FEW150 BKN250 03/M08 A2992 RMK AO2 SLP131 T00331083 51015 $

KPHX 161451Z 22004KT 10SM SCT055 BKN180 BKN250 09/04 A2996 RMK AO2 SLP138 T00940044 53012 $

KPIT 161451Z 36009KT 10SM OVC021 M04/M09 A3001 RMK AO2 SLP185 T10441089 51015

KSAN 161451Z 00000KT 10SM SCT030 SCT050 BKN250 12/04 A3017 RMK AO2 SLP215 T01170044 51015 $

KSEA 161531Z 00000KT 8SM BKN004 OVC010 03/02 A2980 RMK AO2 T00330017

KSFO 161456Z 29010KT 8SM FEW011 SCT050 BKN070 08/04 A3017 RMK AO2 RAB03E15 SLP217 P0000 60001 T00830039 53017

KSLC 161454Z 31008KT 10SM FEW040 SCT070 BKN090 M01/M06 A2984 RMK AO2 SLP116 SH DSNT SE AND SW T10111056 51016

KSTL 161451Z 05007KT 10SM BKN250 M07/M11 A3010 RMK AO2 SLP208 T10721111 50009

KTPA 161453Z 18010KT 10SM FEW020 BKN250 21/17 A2995 RMK AO2 SLP142 T02060172 53003